Hauptseite
METAR-TAF:

METAR-TAF

Flughäfen :

Lubbock, Texas, Vereinigte Staaten

Breite: 33-40-03N, Länge: 101-49-17W, Höhe: 1000 m

Beobachtung

Neuester Wetterbericht von vor 43 Minuten, um 04:53 UTC
Wind 10 kt aus Süd/Südost
Temperatur 26°C
Luftfeuchtigkeit 45%
Luftdruck 1022 hPa
Sichtweite: 16.1 km
Himmel klar

METAR: KLBB 130453Z 15010KT 10SM CLR 26/13 A3017 RMK AO2 SLP156 T02610128

Zeit: 00:36 (05:36 UTC)

Prognose

Neuester Wetterbericht von vor 6 Stunden und 7 Minuten, um 23:29 UTC
Gültige Prognose vom 13 um 00 UTC bis 13 um 24 UTC
Wind 11 kt aus Süd/Südost
Sichtweite: 10 km
Leicht bewölkt in der Höhe von 10000 ft
Ab 13 um 1200 UTC
Wind 9 kt aus West/Südwest
Sichtweite: 10 km
Himmel klar

TAF: KLBB 122329Z 1300/1324 16011KT P6SM FEW100 FM131200 24009KT P6SM SKC

Wetterbeobachtungen und Prognosen von mehr als 4000 Flughäfen (METAR und TAF Bericht).

Die verfügbaren Stationen werden durch gelbe und rote Markierungen auf der Karte dargestellt.

Führen Sie die Maus auf sie, um den Namen der Station zu sehen.

Darauf klicken, um die Beobachtung von Wetterbeobachtungen und Prognosen zu sehen.

Um die Karte zu ändern : klicken Sie auf den grünen Tasten mit einem schwarzen Kreuz Zum Vergrößern, auf den grünen Button mit einem Gedankenstrich zu verkleinern, oder auf die grünen Pfeile für benachbarte Karten.


METAR-TAF: